Ojo Caliente, NM (87549)

8:41 AM MDT on October 01, 2014 (GMT -0600)
RAWS WILD RIVERS NM US | Change Station
CLOSE
Current Station
Personal Weather Station
Location: Questa, NM
Elevation: 7529 ft
Nearby Weather Stations

Elev 7529 ft 36.69 °N, 105.67 °W | Updated 52 minutes ago

Clear
Clear
30 °F
Feels Like 30 °F
N
0
Wind Variable Wind from North
Gusts 2.0 mph

Today
High -- | Low -- °F
--% Chance of Precip.
Yesterday
High -- | Low -- °F
Precip. -- in
6:58 AM 6:46 PM
Waxing Crescent, 48% visible
Pressure 30.06 in
Visibility 10.0 miles
Clouds Clear
Windchill 30 °F
Dew Point 27 °F
Humidity 90%
Rainfall 0.00 in
Snow Depth 1 in , 1 in , 0 in
UV 1 out of 12
Pollen 4.40 out of 12
Air Quality Not available.
Flu Activity Not available.
METAR KSKX 011355Z AUTO 02003KT 10SM CLR 02/M01 A3006 RMK AO1

More Conditions Fewer Conditions

Pressure 30.06 in
Visibility 10.0 miles
Clouds Clear
Windchill 30 °F
Dew Point 27 °F
Humidity 90%
Rainfall 0.00 in
Snow Depth 1 in , 1 in , 0 in
UV 1 out of 12
Pollen 4.40 out of 12
Air Quality Not available.
Flu Activity Not available.
METAR KSKX 011355Z AUTO 02003KT 10SM CLR 02/M01 A3006 RMK AO1

More Conditions Fewer Conditions

10-Day Weather Forecast

Almanac

Astronomy

Oct. 01, 2014 Rise Set
Actual Time 6:58 AM MDT 6:46 PM MDT
Civil Twilight 6:32 AM MDT 7:12 PM MDT
Nautical Twilight 6:02 AM MDT 7:42 PM MDT
Astronomical Twilight 5:32 AM MDT 8:12 PM MDT
Moon 1:55 PM MDT No Moon Set
Length of Visible Light 12h 39m
Length of Day
11h 48m
Tomorrow will be 2m 18s shorter.
Waxing Crescent, 48% of the Moon is Illuminated
Today
Waxing Crescent
Oct 1
First Quarter
Oct 8
Full
Oct 15
Last Quarter
Oct 23
New

Today's Extremes

State Highs State Lows

Community

WunderPhotos

Upload Photos

1,757,960 photos uploaded!

Nearby

Snow Depth

Station Depth Elevation
Elk Cabin 1 in 8210 ft
Red River Pass #2 1 in 9850 ft
Lookout Mountain 0 in 8500 ft
Tolby 1 in 10180 ft
Hopewell 1 in 10000 ft

Earthquake Activity

City Distance Mag. Time & Date
Trinidad, Colorado 57 miles 2.9 3:55 AM MDT
2014-09-30
Minimum magnitude displayed is 2.5.

Coastal Water Temperatures

Place Temperature
No Stations Reporting

Nearby Weather Stations